Detall de PIREP

Printer-friendly versionPDF version

[2013/01/13 08:14:00]
Flight IATA:CT0001
Pilot Number:041
Company ICAO:CAT
Aircraft Type:A320/E
PAX:110
Departing Airport: LEVC
Destination Airport: LEDA
Alternate Airport:LEBL
Online: VATSIM
Route:DCT TATOS A34 SEROX H110 OSVAK DCT
Flight Level:F180
No Slew and time accel
No pause
Crash detect
Detect pilot in Cockpit between each 30 and 45 minutes
08:14 Zero fuel Weight: 134050 Lbs, Fuel Weight: 7167 Lbs
08:14 VATSIM:LEVC 130800Z 28018G28KT 9999 FEW030 10/M00 Q1012 NOSIG
08:14 VATSIM:LEDA 130800Z 28011KT 9999 -DZ FEW005 BKN013 04/03 Q1009
08:14 VOICE CATALONIAN
08:16 Parking Brakes off
08:23 Take-off
08:23 Take off Weight: 140373 Lbs
08:23 Wind: 279º @ 026 Knots Heading: 294º
08:23 POS N39º 29´ 28´´ W000º 29´ 14´´
08:23 Gear Up: 184 Knots
08:23 Flaps:3 at 184 Knots
08:23 Flaps:2 at 189 Knots
08:23 Flaps:1 at 204 Knots
08:23 Flaps:0 at 217 Knots
08:29 TOC
08:29 Fuel Weight: 4306 Lb
08:37 TOD
08:37 Fuel Weight: 3241 Lb
08:38 Wind:276º@018 Knots Heading: 014º Ground Speed: 312 Knots Altitude 16125 ft
08:49 Flaps:1 at 247 Knots
08:53 Wind:272º@008 Knots Heading: 302º Ground Speed: 187 Knots Altitude 2982 ft
08:53 Gear Down: 188 Knots
08:53 Flaps:2 at 188 Knots
08:53 Flaps:3 at 169 Knots
08:54 Flaps:4 at 147 Knots
08:54 Flaps:5 at 143 Knots
08:55 TouchDown:Rate -79 ft/min Speed: 128 Knots
08:56 VATSIM:LEDA 130830Z 28014KT 9999 -DZ FEW005 BKN013 04/03 Q1009
08:56 Land
08:56 Wind:275º@008 Knots
08:56 Heading: 292º
08:56 Flight Duration: 00:33
08:56 Landing Weight: 135594 Lbs
08:56 POS N41º 43´ 39´´ E000º 32´ 07´´
08:58 Parking brakes on
08:58 Block to Block Duration: 00:42
08:58 Final Fuel: 1296 Lbls
08:58 Spent Fuel: 5870 Lbls
08:58 Flight Length: 156 NM
08:58 TOD Land Length: 76 NM

Exportar CSV

Powered by Drupal - Modified by Danger4k